Time;durP1;ratioP1;P1;durP2;ratioP2;P2;SDS_P1;SDS_P2;PMS_P1;PMS_P2;Temp;Humidity;BMP_temperature;BMP_pressure;BME280_temperature;BME280_humidity;BME280_pressure;Samples;Min_cycle;Max_cycle;Signal;HPM_P1;HPM_P2
2022/07/23 00:09:40;;;;;;;1.38;1.10;;;;;;;-145.06;100.00;60892.56;6030892;22;20103;-92
2022/07/23 00:12:23;;;;;;;1.83;1.00;;;;;;;-145.06;100.00;60892.56;6009135;23;20000;-91
2022/07/23 00:15:08;;;;;;;1.42;0.77;;;;;;;-145.06;100.00;60892.56;6008722;23;20008;-91
2022/07/23 00:17:54;;;;;;;0.90;0.85;;;;;;;-145.06;100.00;60892.56;6010093;23;20446;-91
2022/07/23 00:20:41;;;;;;;1.35;0.98;;;;;;;-145.06;100.00;60892.56;6013309;23;20008;-90
2022/07/23 00:23:28;;;;;;;2.15;1.00;;;;;;;-145.06;100.00;60892.56;6012518;23;20000;-91
2022/07/23 00:26:11;;;;;;;1.60;1.10;;;;;;;-145.06;100.00;60892.56;6013243;23;20000;-93
2022/07/23 00:28:56;;;;;;;1.30;1.05;;;;;;;-145.06;100.00;60892.56;6012417;23;20004;-92
2022/07/23 00:32:06;;;;;;;1.75;0.85;;;;;;;-145.06;100.00;60892.56;6012750;23;20474;-93
2022/07/23 00:34:50;;;;;;;1.05;0.90;;;;;;;-145.06;100.00;60892.56;6011912;23;20004;-91
2022/07/23 00:37:49;;;;;;;1.50;0.93;;;;;;;-145.06;100.00;60892.56;6012552;23;20008;-92
2022/07/23 00:41:01;;;;;;;;;;;;;;;;;;;;;
2022/07/23 00:47:20;;;;;;;1.15;0.88;;;;;;;-145.06;100.00;60892.56;6045098;23;20008;-93
2022/07/23 00:50:24;;;;;;;2.80;1.10;;;;;;;-145.06;100.00;60892.56;6013389;23;20004;-93
2022/07/23 01:00:13;;;;;;;1.30;1.00;;;;;;;-145.06;100.00;60892.56;6044935;23;20004;-92
2022/07/23 01:03:30;;;;;;;;;;;;;;;;;;;;;
2022/07/23 01:06:50;;;;;;;1.17;1.08;;;;;;;-145.06;100.00;60892.56;6044855;23;20000;-92
2022/07/23 01:09:33;;;;;;;;;;;;;;;-145.06;100.00;60892.56;6005328;23;20034;-91
2022/07/23 01:16:12;;;;;;;;;;;;;;;-145.06;100.00;60892.56;6011136;23;20012;-92
2022/07/23 01:54:38;;;;;;;2.03;1.42;;;;;;;-145.06;100.00;60892.56;5997032;22;20027;-90
2022/07/23 01:57:54;;;;;;;3.38;1.48;;;;;;;-145.06;100.00;60892.56;6010916;23;20060;-95
2022/07/23 02:00:40;;;;;;;2.08;1.52;;;;;;;-145.06;100.00;60892.56;6013017;23;20008;-94
2022/07/23 02:03:30;;;;;;;2.00;1.50;;;;;;;-145.06;100.00;60892.56;6012607;23;20004;-94
2022/07/23 02:06:21;;;;;;;2.13;1.60;;;;;;;-145.06;100.00;60892.56;6012774;23;20427;-93
2022/07/23 02:09:05;;;;;;;2.42;1.63;;;;;;;-145.06;100.00;60892.56;6012835;23;20308;-92
2022/07/23 02:12:03;;;;;;;1.98;1.60;;;;;;;-145.06;100.00;60892.56;6012035;23;20004;-94
2022/07/23 02:14:48;;;;;;;1.55;1.35;;;;;;;-145.06;100.00;60892.56;6011633;23;20004;-94
2022/07/23 02:17:38;;;;;;;3.78;1.65;;;;;;;-145.06;100.00;60892.56;5990910;23;20012;-93
2022/07/23 02:20:44;;;;;;;1.60;1.38;;;;;;;-145.06;100.00;60892.56;6012890;23;20332;-92
2022/07/23 02:23:35;;;;;;;1.85;1.60;;;;;;;-145.06;100.00;60892.56;6011781;23;20000;-94
2022/07/23 02:26:43;;;;;;;2.15;1.50;;;;;;;-145.06;100.00;60892.56;6011882;23;20008;-95
2022/07/23 02:29:58;;;;;;;;;;;;;;;;;;;;;
2022/07/23 02:32:32;;;;;;;2.47;1.58;;;;;;;-145.06;100.00;60892.56;6017456;23;20060;-93
2022/07/23 02:35:14;;;;;;;1.77;1.58;;;;;;;-145.06;100.00;60892.56;6012842;23;20008;-94
2022/07/23 02:38:45;;;;;;;2.20;1.73;;;;;;;-145.06;100.00;60892.56;6013293;23;20000;-93
2022/07/23 02:41:33;;;;;;;2.50;1.73;;;;;;;-145.06;100.00;60892.56;6013103;23;20007;-93
2022/07/23 02:44:28;;;;;;;2.00;1.55;;;;;;;-145.06;100.00;60892.56;6012967;23;20004;-94
2022/07/23 02:47:19;;;;;;;2.25;1.48;;;;;;;-145.06;100.00;60892.56;6013099;23;20125;-93
2022/07/23 02:50:19;;;;;;;2.90;1.60;;;;;;;-145.06;100.00;60892.56;6011953;23;20008;-93
2022/07/23 02:53:18;;;;;;;1.80;1.45;;;;;;;-145.06;100.00;60892.56;6012032;23;20004;-94
2022/07/23 02:56:13;;;;;;;1.52;1.42;;;;;;;-145.06;100.00;60892.56;6002252;23;20490;-93
2022/07/23 02:59:09;;;;;;;1.92;1.30;;;;;;;-145.06;100.00;60892.56;6002678;23;20009;-93
2022/07/23 03:02:14;;;;;;;5.13;1.60;;;;;;;-145.06;100.00;60892.56;6004166;23;20004;-93
2022/07/23 03:05:11;;;;;;;1.65;1.42;;;;;;;-145.06;100.00;60892.56;6005222;23;20005;-93
2022/07/23 03:08:01;;;;;;;1.70;1.42;;;;;;;-145.06;100.00;60892.56;6004285;23;20008;-93
2022/07/23 03:11:11;;;;;;;;;;;;;;;;;;;;;
2022/07/23 03:14:01;;;;;;;1.45;1.35;;;;;;;-145.06;100.00;60892.56;6015423;23;20009;-92
2022/07/23 03:16:59;;;;;;;;;;;;;;;;;;;;;
2022/07/23 03:19:59;;;;;;;1.88;1.30;;;;;;;-145.06;100.00;60892.56;6014698;23;20009;-93
2022/07/23 03:22:52;;;;;;;1.50;1.30;;;;;;;-145.06;100.00;60892.56;6003950;23;20001;-92
2022/07/23 03:25:32;;;;;;;2.05;1.65;;;;;;;-145.06;100.00;60892.56;6003722;23;20036;-93
2022/07/23 03:28:16;;;;;;;;;;;;;;;-145.06;100.00;60892.56;6004746;23;20004;-94
2022/07/23 03:34:42;;;;;;;;;;;;;;;;;;;;;
2022/07/23 03:37:38;;;;;;;0.70;0.60;;;;;;;-145.06;100.00;60892.56;5985199;23;20016;-93
2022/07/23 03:44:03;;;;;;;;;;;;;;;;;;;;;
2022/07/23 03:47:21;;;;;;;1.00;0.77;;;;;;;-145.06;100.00;60892.56;5987397;23;20001;-93
2022/07/23 03:53:36;;;;;;;1.08;0.98;;;;;;;-145.06;100.00;60892.56;5986655;23;20005;-93
2022/07/23 03:56:26;;;;;;;1.13;0.80;;;;;;;-145.06;100.00;60892.56;5976046;23;20028;-94
2022/07/23 03:59:24;;;;;;;0.73;0.70;;;;;;;-145.06;100.00;60892.56;5976043;23;20009;-94
2022/07/23 04:02:24;;;;;;;0.90;0.70;;;;;;;-145.06;100.00;60892.56;5976057;23;20001;-95
2022/07/23 04:05:13;;;;;;;0.88;0.77;;;;;;;-145.06;100.00;60892.56;5975882;23;20001;-94
2022/07/23 04:08:28;;;;;;;;;;;;;;;;;;;;;
2022/07/23 04:11:51;;;;;;;1.23;0.90;;;;;;;-145.06;100.00;60892.56;5986724;23;20005;-94
2022/07/23 04:19:56;;;;;;;2.58;1.48;;;;;;;-145.06;100.00;60892.56;5934640;23;20666;-91
2022/07/23 04:23:00;;;;;;;1.38;1.05;;;;;;;-145.06;100.00;60892.56;5925515;23;20013;-93
2022/07/23 04:26:01;;;;;;;1.20;1.10;;;;;;;-145.06;100.00;60892.56;5903549;23;20452;-91
2022/07/23 05:36:23;;;;;;;2.55;1.88;;;;;;;-145.06;100.00;60892.56;5983880;23;20009;-91
2022/07/23 05:39:08;;;;;;;3.55;2.03;;;;;;;-145.06;100.00;60892.56;5951303;23;20001;-89
2022/07/23 05:41:52;;;;;;;2.42;1.73;;;;;;;-145.06;100.00;60892.56;5952554;23;20083;-91
2022/07/23 05:44:31;;;;;;;2.83;1.75;;;;;;;-145.06;100.00;60892.56;5952850;23;20008;-91
2022/07/23 05:47:10;;;;;;;2.60;2.05;;;;;;;-145.06;100.00;60892.56;5951551;23;20005;-90
2022/07/23 05:49:58;;;;;;;2.87;2.13;;;;;;;-145.06;100.00;60892.56;5953316;23;20009;-89
2022/07/23 05:52:40;;;;;;;3.33;2.03;;;;;;;-145.06;100.00;60892.56;5954379;23;20004;-91
2022/07/23 05:55:20;;;;;;;1.92;1.48;;;;;;;-145.06;100.00;60892.56;5954105;23;20009;-90
2022/07/23 05:57:59;;;;;;;2.10;1.70;;;;;;;-145.06;100.00;60892.56;5953457;23;20309;-92
2022/07/23 06:00:38;;;;;;;2.05;1.63;;;;;;;-145.06;100.00;60892.56;5953410;23;20313;-91
2022/07/23 06:03:17;;;;;;;2.42;1.65;;;;;;;-145.06;100.00;60892.56;5953216;23;20044;-91
2022/07/23 06:05:57;;;;;;;2.65;1.98;;;;;;;-145.06;100.00;60892.56;5953452;23;20001;-90
2022/07/23 06:08:36;;;;;;;2.75;1.85;;;;;;;-145.06;100.00;60892.56;5953805;23;20001;-90
2022/07/23 06:11:15;;;;;;;3.33;1.98;;;;;;;-145.06;100.00;60892.56;5953745;23;20013;-90
2022/07/23 06:13:57;;;;;;;3.47;2.35;;;;;;;-145.06;100.00;60892.56;5954161;23;20005;-92
2022/07/23 06:16:47;;;;;;;3.03;2.20;;;;;;;21.08;100.00;60892.56;5953563;23;20013;-91
2022/07/23 06:19:38;;;;;;;;;;;;;;;-145.06;100.00;60892.56;5954611;23;20004;-92
2022/07/23 06:25:48;;;;;;;3.28;2.38;;;;;;;18.31;100.00;60892.56;5981343;23;20008;-91
2022/07/23 06:28:27;;;;;;;3.30;2.50;;;;;;;18.23;100.00;60892.56;5949592;23;20084;-90
2022/07/23 06:31:06;;;;;;;3.33;2.55;;;;;;;18.26;100.00;60892.56;5949451;23;20428;-90
2022/07/23 06:33:45;;;;;;;2.93;2.13;;;;;;;18.29;100.00;60892.56;5949154;23;20072;-91
2022/07/23 06:36:26;;;;;;;3.10;2.30;;;;;;;-145.06;100.00;60892.56;5970559;23;20009;-91
2022/07/23 06:39:05;;;;;;;3.08;2.40;;;;;;;18.33;100.00;60892.56;5948927;23;20236;-91
2022/07/23 06:41:44;;;;;;;2.72;2.25;;;;;;;-145.06;100.00;60892.56;5949141;23;20005;-91
2022/07/23 06:44:24;;;;;;;3.03;2.40;;;;;;;-145.06;100.00;60892.56;5949466;23;20001;-91
2022/07/23 06:47:03;;;;;;;3.80;2.15;;;;;;;21.08;100.00;60892.56;5949822;23;20076;-90
2022/07/23 06:49:42;;;;;;;2.80;2.25;;;;;;;-145.06;100.00;60892.56;5949438;23;20028;-90
2022/07/23 06:52:21;;;;;;;2.22;1.90;;;;;;;-145.06;100.00;60892.56;5949914;23;20009;-90
2022/07/23 06:55:00;;;;;;;4.00;2.40;;;;;;;18.48;100.00;60892.56;5949202;23;20009;-91
2022/07/23 06:57:39;;;;;;;3.08;2.70;;;;;;;-145.06;100.00;60892.56;5947949;23;20431;-90
2022/07/23 07:00:18;;;;;;;3.25;2.20;;;;;;;-145.06;100.00;60892.56;5949376;23;20328;-89
2022/07/23 07:02:57;;;;;;;3.47;2.58;;;;;;;-145.06;100.00;60892.56;5948861;23;20313;-89
2022/07/23 07:05:40;;;;;;;3.17;2.58;;;;;;;-145.06;100.00;60892.56;5949027;23;20036;-91
2022/07/23 07:09:04;;;;;;;2.70;2.15;;;;;;;-145.06;100.00;60892.56;5948741;23;20005;-91
2022/07/23 07:11:43;;;;;;;3.83;2.38;;;;;;;-145.06;100.00;60892.56;5949294;23;20017;-90
2022/07/23 07:14:28;;;;;;;2.85;2.20;;;;;;;-145.06;100.00;60892.56;5949269;23;20023;-91
2022/07/23 07:17:07;;;;;;;8.25;2.20;;;;;;;-145.06;100.00;60892.56;5950867;23;20009;-90
2022/07/23 07:19:53;;;;;;;6.35;2.50;;;;;;;-145.06;100.00;60892.56;5951275;23;20009;-90
2022/07/23 19:08:14;;;;;;;0.47;0.40;;;;;;;-145.06;100.00;60892.56;5887864;23;20030;-90
2022/07/23 19:10:53;;;;;;;1.13;0.40;;;;;;;-145.06;100.00;60892.56;5860650;23;20011;-90
2022/07/23 19:13:33;;;;;;;0.40;0.40;;;;;;;-145.06;100.00;60892.56;5891406;23;20007;-89
2022/07/23 19:16:17;;;;;;;0.35;0.30;;;;;;;-145.06;100.00;60892.56;5967880;23;20001;-90
